Terminal Aerodrome Forecast
Issued by NWS

Home | Current Version | Previous Version | Graphics & Text | Print | Product List | Glossary On
Versions: 1 2 3 4 5 6 7 8 9 10 11 12 13 14 15 16 17 18 19 20 21 22 23 24 25 26 27
850
FTUS43 KLOT 171336 AAA
TAFMDW
TAF AMD
KMDW 171336Z 1714/1818 05004KT 6SM BR BCFG BKN008 OVC200
     FM171600 10004KT P6SM SCT008 OVC150
     FM180500 22005KT 4SM BR OVC012 PROB30 1807/1813 1SM -DZ BR BCFG
      OVC006=

USA.gov is the U.S. government's official web portal to all federal, state and local government web resources and services.